Moapa Valley, Nevada Weather observations

Data are for 10 minute period ending at time listed.
 Day   Time   Solar   Ave.   Ave.  Ave.  Vector  Max.   Baro.   Total    
  of    of     Rad.   Air    Rel.  Wind   Wind   Wind  Press.  Precip.   
Year   Day            Temp.  Hum.  Speed  Dir.   Gust                    
2014   (PST)  Kw/m2    F      %     mph   deg.    mph    mb.     in.     
-------------------------------------------------------------------------
 274    0:20   0.00   61.5    76    0.8   356     3.1   960.0    0.00 
 274    0:30   0.00   60.5    76    1.7   340     2.4   960.1    0.00 
 274    0:40   0.00   61.0    74    1.5   298     2.8   960.2    0.00 
 274    0:50   0.00   61.5    73    2.6   310     3.1   960.3    0.00 
 274    1:00   0.00   60.8    74    2.4   350     2.8   960.3    0.00 
 274    1:10   0.00   61.7    71    2.4   342     3.1   960.3    0.00 
 274    1:20   0.00   62.3    70    1.5   306     2.1   960.3    0.00 
 274    1:30   0.00   60.9    74    2.8   317     3.1   960.2    0.00 
 274    1:40   0.00   60.5    75    2.6   335     3.5   960.2    0.00 
 274    1:50   0.00   61.1    75    1.9   280     2.8   960.2    0.00 
 274    2:00   0.00   60.6    77    2.1   243     3.5   960.1    0.00 
 274    2:10   0.00   59.2    79    2.6   284     3.8   960.0    0.00 
 274    2:20   0.00   58.3    81    2.8   312     4.6   960.2    0.00 
 274    2:30   0.00   59.9    77    2.9   292     4.9   960.3    0.00 
 274    2:40   0.00   60.3    76    3.6   315     5.3   960.5    0.00 
 274    2:50   0.00   60.9    74    3.8   337     5.3   960.6    0.00 
 274    3:00   0.00   61.2    72    5.0   332     6.7   960.7    0.00 
 274    3:10   0.00   62.2    69    4.6   337     6.3   960.8    0.00 
 274    3:20   0.00   61.8    71    3.6   350     4.9   960.9    0.00 
 274    3:30   0.00   62.1    69    3.5   358     4.6   961.0    0.00 
 274    3:40   0.00   62.4    66    3.3   345     4.2   961.1    0.00 
 274    3:50   0.00   62.4    66    2.7   324     3.8   961.3    0.00 
 274    4:00   0.00   60.1    74    2.7   231     3.5   961.4    0.00 
 274    4:10   0.00   60.2    73    2.8   276     3.8   961.6    0.00 
 274    4:20   0.00   59.7    75    2.3   285     4.9   961.8    0.00 
 274    4:30   0.00   59.9    74    2.5   292     4.2   962.0    0.00 
 274    4:40   0.00   59.6    75    3.3   312     4.2   962.1    0.00 
 274    4:50   0.00   59.4    75    3.7   312     6.0   962.2    0.00 
 274    5:00   0.00   59.6    75    3.6   285     4.9   962.4    0.00 
 274    5:10   0.00   60.3    73    2.8   283     4.6   962.3    0.00 
 274    5:20   0.00   60.1    73    3.8   357     5.3   962.5    0.00 
 274    5:30   0.00   61.7    69    5.2   322     8.1   962.9    0.00 
 274    5:40   0.01   61.9    70    5.1   309     7.1   963.0    0.00 
 274    5:50   0.01   61.2    71    5.0   330     7.4   963.2    0.00 
 274    6:00   0.03   61.7    69    5.8   324     7.8   963.4    0.00 
 274    6:10   0.08   63.0    66    6.3   320     9.2   963.6    0.00 
 274    6:20   0.12   64.4    64    4.5   322     7.8   963.7    0.00 
 274    6:30   0.15   64.6    65    3.2   346     4.9   964.0    0.00 
 274    6:40   0.19   66.0    62    3.6   329     5.3   964.1    0.00 
 274    6:50   0.22   67.3    61    3.9   315     4.9   964.2    0.00 
 274    7:00   0.26   69.3    59    2.3   321     3.8   964.3    0.00 
 274    7:10   0.30   70.8    53    3.1   336     4.6   964.4    0.00 
 274    7:20   0.34   71.8    49    4.0   331     5.6   964.6    0.00 
 274    7:30   0.38   73.3    44    4.0   334     7.1   964.8    0.00 
 274    7:40   0.42   73.7    44    4.7   324     6.3   964.9    0.00 
 274    7:50   0.46   74.1    42    5.2   336     7.1   965.1    0.00 
 274    8:00   0.49   75.0    40    5.4   334     7.1   965.2    0.00 
 274    8:10   0.53   76.1    39    5.5   338     8.1   965.3    0.00 
 274    8:20   0.57   76.8    37    6.5   316     9.2   965.3    0.00 
 274    8:30   0.60   77.0    36    7.0   318    11.0   965.5    0.00 
 274    8:40   0.63   77.7    35    6.3   327     9.2   965.6    0.00 
 274    8:50   0.66   78.7    33    3.8   353     7.4   965.8    0.00 
 274    9:00   0.69   78.9    33    4.2   348     7.8   965.8    0.00 
 274    9:10   0.71   79.0    33    5.9     4    10.3   965.8    0.00 
 274    9:20   0.67   79.4    32    8.6     1    14.9   965.9    0.00 
 274    9:30   0.77   79.4    32    9.9    21    15.6   965.9    0.00 
 274    9:40   0.78   79.2    32   10.4    22    17.1   965.9    0.00 
 274    9:50   0.79   79.5    31    9.8    22    14.6   965.9    0.00 
 274   10:00   0.79   79.3    31   11.0     7    17.8   965.9    0.00 
 274   10:10   0.83   79.2    33    9.5     6    15.6   965.9    0.00 
 274   10:20   0.86   79.6    31   10.1    19    16.4   965.8    0.00 
 274   10:30   0.88   79.8    31   10.2    17    14.9   965.7    0.00 
 274   10:40   0.89   80.2    30    9.4    20    13.5   965.6    0.00 
 274   10:50   0.90   80.8    28    7.3    26    12.8   965.5    0.00 
 274   11:00   0.90   80.9    29    7.5    23    14.6   965.5    0.00 
 274   11:10   0.91   80.8    27    5.0    27     8.5   965.4    0.00 
 274   11:20   0.91   80.7    29    7.4   344    14.6   965.5    0.00 
 274   11:30   0.91   80.6    29    7.8   354    13.1   965.4    0.00 
 274   11:40   0.92   80.8    29    6.8   345    14.9   965.3    0.00 
 274   11:50   0.91   81.1    29    7.9   356    15.6   965.2    0.00 
 274   12:00   0.90   81.1    28    5.9    20    11.3   965.0    0.00 
 274   12:10   0.90   82.0    27    7.2     3    12.4   964.9    0.00 
 274   12:20   0.89   81.3    28    7.3   351    11.7   964.7    0.00 
 274   12:30   0.88   82.1    28    7.3    11    12.4   964.6    0.00 
 274   12:40   0.86   81.9    26    7.1     2    11.7   964.7    0.00 
 274   12:50   0.85   81.6    26    7.8     4    13.5   964.7    0.00 
 274   13:00   0.83   81.9    26    6.4    14    12.1   964.6    0.00 
 274   13:10   0.81   82.1    27    5.5     9    10.3   964.6    0.00 
 274   13:20   0.80   82.0    26    6.7   336    12.1   964.6    0.00 
 274   13:30   0.78   83.0    23    6.3   341    10.6   964.6    0.00 
 274   13:40   0.76   83.6    20    9.8   332    16.7   964.6    0.00 
 274   13:50   0.73   82.4    25    8.4    17    14.9   964.6    0.00 
 274   14:00   0.70   82.4    24    8.2    56    13.1   964.6    0.00 
 274   14:10   0.66   82.8    25    9.1    11    14.9   964.8    0.00 
 274   14:20   0.63   82.8    24    7.9     8    12.4   964.9    0.00 
 274   14:30   0.60   82.9    24    7.0    18    10.3   964.9    0.00 
 274   14:40   0.57   82.9    23    7.3    32    11.7   964.9    0.00 
 274   14:50   0.53   82.8    24    7.9    32    14.6   964.9    0.00 
 274   15:00   0.50   82.5    23    6.3    46    13.5   964.8    0.00 
 274   15:10   0.46   82.7    23    8.4    20    13.8   964.9    0.00 
 274   15:20   0.42   82.5    23    8.2    18    12.4   965.0    0.00 
 274   15:30   0.38   82.3    22    7.2    18    13.5   965.1    0.00 
 274   15:40   0.34   82.5    21    7.9     8    14.6   965.1    0.00 
 274   15:50   0.31   82.2    22    7.0    22    10.3   965.1    0.00 
 274   16:00   0.27   81.9    22    8.0    20    14.2   965.2    0.00 
 274   16:10   0.23   81.4    22    8.4    14    15.3   965.3    0.00 
 274   16:20   0.19   81.3    22    8.7    18    13.1   965.3    0.00 
 274   16:30   0.16   80.7    22    8.7    24    13.1   965.3    0.00 
 274   16:40   0.12   80.1    23    9.2    14    16.0   965.4    0.00 
 274   16:50   0.09   79.6    23   10.3    14    15.6   965.6    0.00 
 274   17:00   0.07   79.0    23   10.3    13    15.3   965.8    0.00 
 274   17:10   0.03   78.5    23   10.2    18    14.6   965.9    0.00 
 274   17:20   0.01   77.8    23    7.9    17    13.1   966.1    0.00 
 274   17:30   0.00   77.3    24    6.9    21    11.7   966.2    0.00 
 274   17:40   0.00   76.9    24    7.9    18    12.8   966.3    0.00 
 274   17:50   0.00   76.6    24    7.3    13    12.8   966.5    0.00 
 274   18:00   0.00   76.2    24    7.6    13    12.1   966.7    0.00 
 274   18:10   0.00   75.7    24    7.8    12    11.0   966.8    0.00 
 274   18:20   0.00   74.9    25    7.0     8    10.6   966.9    0.00 
 274   18:30   0.00   74.7    25    7.9     8    11.7   967.1    0.00 
 274   18:40   0.00   74.6    25    8.1    13    13.1   967.3    0.00 
 274   18:50   0.00   74.4    25    8.2    10    12.8   967.5    0.00 
 274   19:00   0.00   73.7    25    7.2     6    10.6   967.7    0.00 
 274   19:10   0.00   74.2    24    8.2    14    12.8   967.8    0.00 
 274   19:20   0.00   74.0    23   10.6    14    16.4   968.0    0.00 
 274   19:30   0.00   74.4    22   11.2    16    19.6   968.2    0.00 
 274   19:40   0.00   74.1    22   11.0    11    18.9   968.2    0.00 
 274   19:50   0.00   74.0    22   12.7    14    18.9   968.4    0.00 
 274   20:00   0.00   73.4    22    9.7    17    13.5   968.5    0.00 
 274   20:10   0.00   72.9    22    9.6    19    15.6   968.5    0.00 
 274   20:20   0.00   72.8    22   10.1    15    15.6   968.6    0.00 
 274   20:30   0.00   72.6    22   10.3    18    15.6   968.7    0.00 
 274   20:40   0.00   72.4    22   10.5    19    15.6   968.8    0.00 
 274   20:50   0.00   72.1    22    9.2    19    18.1   968.9    0.00 
 274   21:00   0.00   72.6    22   13.4    17    20.6   969.0    0.00 
 274   21:10   0.00   72.6    21   15.5    14    22.1   969.1    0.00 
 274   21:20   0.00   72.4    22   15.1    18    22.4   969.3    0.00 
 274   21:30   0.00   72.0    22   12.9    11    19.2   969.6    0.00 
 274   21:40   0.00   71.3    22   10.9    10    17.8   969.7    0.00 
 274   21:50   0.00   71.0    22   11.6    14    18.1   969.7    0.00 
 274   22:00   0.00   71.1    22   12.0    12    17.4   969.9    0.00 
 274   22:10   0.00   70.4    23   10.5    11    16.4   969.9    0.00 
 274   22:20   0.00   69.9    24   11.5     8    17.4   970.1    0.00 
 274   22:30   0.00   70.0    24   11.6     0    17.1   970.2    0.00 
 274   22:40   0.00   70.2    24   12.5   360    18.5   970.3    0.00 
 274   22:50   0.00   69.8    24   11.7   358    18.1   970.3    0.00 
 274   23:00   0.00   69.9    24   12.8   358    17.8   970.4    0.00 
 274   23:10   0.00   69.7    24   12.8     4    19.9   970.6    0.00 
 274   23:20   0.00   69.6    24   12.7     2    18.9   970.7    0.00 
 274   23:30   0.00   69.5    25   12.3     0    18.1   970.7    0.00 
 274   23:40   0.00   69.5    25   11.9     4    18.5   970.7    0.00 
 274   23:50   0.00   68.9    26    9.4     4    17.1   970.7    0.00 
 275    0:00   0.00   68.9    26   10.5   359    16.4   970.9    0.00 
 275    0:10   0.00   68.8    26    9.5   358    17.4   971.1    0.00 

Return to Moapa Valley graphs page.


Western Regional Climate Center,wrcc@dri.edu